Time;durP1;ratioP1;P1;durP2;ratioP2;P2;SDS_P1;SDS_P2;PMS_P1;PMS_P2;Temp;Humidity;BMP_temperature;BMP_pressure;BME280_temperature;BME280_humidity;BME280_pressure;Samples;Min_cycle;Max_cycle;Signal;HPM_P1;HPM_P2
2023/08/17 00:00:08;;;;;;;7.15;2.00;;;21.10;63.70;;;;;;5029479;28;20033;-69
2023/08/17 00:02:35;;;;;;;6.40;2.25;;;21.30;67.20;;;;;;5046397;28;20334;-68
2023/08/17 00:05:03;;;;;;;3.75;2.00;;;21.80;63.80;;;;;;5051635;28;20378;-68
2023/08/17 00:07:30;;;;;;;5.80;1.83;;;21.90;63.40;;;;;;5050240;28;20145;-69
2023/08/17 00:09:57;;;;;;;3.42;2.35;;;22.10;63.10;;;;;;5031972;28;20021;-68
2023/08/17 00:12:26;;;;;;;4.97;1.88;;;21.80;64.50;;;;;;5052074;28;20017;-69
2023/08/17 00:14:54;;;;;;;4.95;1.90;;;21.80;64.30;;;;;;5044839;28;20021;-69
2023/08/17 00:17:22;;;;;;;5.70;1.88;;;22.50;64.70;;;;;;5028897;28;20449;-69
2023/08/17 00:19:50;;;;;;;5.28;1.92;;;23.70;57.60;;;;;;5047602;28;20040;-69
2023/08/17 00:22:17;;;;;;;3.08;1.80;;;23.10;60.50;;;;;;5031841;28;20037;-69
2023/08/17 00:24:44;;;;;;;3.92;2.10;;;22.70;62.50;;;;;;5043668;28;20425;-68
2023/08/17 00:27:12;;;;;;;1.88;1.63;;;23.30;60.90;;;;;;5042376;28;20041;-68
2023/08/17 00:29:39;;;;;;;3.63;2.08;;;23.50;59.40;;;;;;5051915;28;20500;-68
2023/08/17 00:32:07;;;;;;;3.83;2.00;;;23.40;56.20;;;;;;5036170;28;20036;-69
2023/08/17 00:34:34;;;;;;;3.83;1.75;;;23.30;59.30;;;;;;5051477;28;20479;-69
2023/08/17 00:37:01;;;;;;;4.07;1.83;;;23.40;56.30;;;;;;5051932;28;20108;-69
2023/08/17 00:39:29;;;;;;;3.30;1.60;;;23.00;56.50;;;;;;5051905;28;20382;-69
2023/08/17 00:41:56;;;;;;;3.38;1.95;;;23.20;56.70;;;;;;5040207;28;20061;-69
2023/08/17 00:44:23;;;;;;;3.38;2.30;;;23.40;56.10;;;;;;5040337;28;20021;-69
2023/08/17 00:46:51;;;;;;;3.67;1.60;;;23.60;54.20;;;;;;5031900;28;20497;-69
2023/08/17 00:49:18;;;;;;;2.13;1.67;;;22.90;57.20;;;;;;5042187;28;20116;-69
2023/08/17 00:51:46;;;;;;;3.78;1.70;;;23.10;56.30;;;;;;5029928;28;20463;-70
2023/08/17 00:54:13;;;;;;;2.80;1.73;;;23.80;54.10;;;;;;5031452;28;20454;-69
2023/08/17 00:56:41;;;;;;;4.85;1.85;;;23.70;56.10;;;;;;5031722;28;20029;-69
2023/08/17 00:59:09;;;;;;;8.68;4.50;;;24.10;54.90;;;;;;5035232;28;20052;-69
2023/08/17 01:01:36;;;;;;;11.23;4.95;;;24.80;54.40;;;;;;5051071;28;20033;-69
2023/08/17 01:04:04;;;;;;;10.93;4.82;;;23.60;56.10;;;;;;5034461;28;20498;-69
2023/08/17 01:06:31;;;;;;;6.45;4.00;;;22.90;56.80;;;;;;5032099;28;20528;-69
2023/08/17 01:08:58;;;;;;;6.32;4.28;;;22.60;58.70;;;;;;5030336;28;20112;-69
2023/08/17 01:11:30;;;;;;;7.43;4.22;;;23.10;55.50;;;;;;5031585;28;20025;-69
2023/08/17 01:14:13;;;;;;;12.20;4.38;;;23.10;57.00;;;;;;5041680;28;20176;-69
2023/08/17 01:16:48;;;;;;;7.57;4.10;;;23.50;56.40;;;;;;5050535;28;20424;-69
2023/08/17 01:19:24;;;;;;;12.50;4.32;;;23.10;56.00;;;;;;5035130;28;20485;-69
2023/08/17 01:22:08;;;;;;;11.13;3.47;;;23.20;56.70;;;;;;5035409;28;20025;-70
2023/08/17 01:24:35;;;;;;;6.38;2.95;;;24.00;53.00;;;;;;5039272;28;20021;-70
2023/08/17 01:27:03;;;;;;;7.68;3.20;;;23.80;55.70;;;;;;5034874;28;20495;-70
2023/08/17 01:29:30;;;;;;;7.93;2.90;;;23.90;54.90;;;;;;5053113;28;20029;-70
2023/08/17 01:32:04;;;;;;;7.18;3.30;;;24.20;52.70;;;;;;5055499;28;20040;-70
2023/08/17 01:34:37;;;;;;;4.38;3.03;;;24.70;53.50;;;;;;5040413;28;20483;-70
2023/08/17 01:37:09;;;;;;;5.80;3.03;;;24.50;52.70;;;;;;5036171;28;20057;-70
2023/08/17 01:39:43;;;;;;;6.82;3.28;;;24.20;52.80;;;;;;5051759;28;20026;-69
2023/08/17 01:42:13;;;;;;;7.70;3.03;;;24.10;51.10;;;;;;5033640;28;20056;-70
2023/08/17 01:44:41;;;;;;;5.75;2.88;;;23.90;53.20;;;;;;5050073;28;20151;-70
2023/08/17 01:47:09;;;;;;;4.22;2.72;;;24.40;52.30;;;;;;5039529;28;20463;-69
2023/08/17 01:49:36;;;;;;;5.22;2.78;;;24.90;50.60;;;;;;5035904;28;20039;-70
2023/08/17 01:52:04;;;;;;;3.95;2.75;;;24.90;50.70;;;;;;5034039;28;20508;-69
2023/08/17 01:54:31;;;;;;;7.15;2.22;;;25.10;51.30;;;;;;5049337;28;20041;-70
2023/08/17 01:56:58;;;;;;;3.92;2.20;;;25.50;50.90;;;;;;5052422;28;20025;-70
2023/08/17 01:59:26;;;;;;;6.85;2.65;;;25.70;50.60;;;;;;5039909;28;20025;-70
2023/08/17 02:01:53;;;;;;;3.50;2.30;;;25.90;48.90;;;;;;5054470;28;20021;-70
2023/08/17 02:04:20;;;;;;;4.50;2.03;;;26.10;49.40;;;;;;5039064;28;20028;-69
2023/08/17 02:06:48;;;;;;;3.50;2.00;;;25.90;48.80;;;;;;5035380;28;20058;-70
2023/08/17 02:09:15;;;;;;;2.83;1.67;;;25.90;48.80;;;;;;5042122;28;20120;-69
2023/08/17 02:11:42;;;;;;;2.65;1.60;;;25.50;48.20;;;;;;5050321;28;20056;-70
2023/08/17 02:14:10;;;;;;;2.45;2.00;;;24.80;46.50;;;;;;5053201;28;20174;-70
2023/08/17 02:16:37;;;;;;;9.50;1.92;;;24.30;46.10;;;;;;5033403;28;20037;-70
2023/08/17 02:19:04;;;;;;;5.00;1.50;;;24.70;48.40;;;;;;5032314;28;20030;-71
2023/08/17 02:21:32;;;;;;;2.78;1.88;;;24.70;48.30;;;;;;5039869;28;20124;-70
2023/08/17 02:23:59;;;;;;;4.07;1.33;;;25.10;48.60;;;;;;5044019;28;20470;-69
2023/08/17 02:26:26;;;;;;;2.97;1.52;;;25.60;46.20;;;;;;5051572;28;20053;-70
2023/08/17 02:28:53;;;;;;;2.55;1.58;;;25.60;46.70;;;;;;5032856;28;20034;-70
2023/08/17 02:31:21;;;;;;;3.35;1.42;;;25.00;48.40;;;;;;5024497;28;20328;-71
2023/08/17 02:33:48;;;;;;;2.20;1.30;;;25.00;45.70;;;;;;5033488;28;20037;-69
2023/08/17 02:36:16;;;;;;;2.40;1.30;;;25.20;45.90;;;;;;5034080;28;20379;-69
2023/08/17 02:38:43;;;;;;;1.15;0.98;;;25.30;47.10;;;;;;5022586;28;20041;-70
2023/08/17 02:41:10;;;;;;;2.22;1.00;;;25.70;45.80;;;;;;5035955;28;20463;-69
2023/08/17 02:43:37;;;;;;;3.38;1.00;;;25.30;43.50;;;;;;5033633;28;20037;-70
2023/08/17 02:46:07;;;;;;;2.08;0.90;;;25.60;44.00;;;;;;5033595;28;20107;-69
2023/08/17 02:48:34;;;;;;;1.45;0.80;;;25.50;43.00;;;;;;5042534;28;20074;-71
2023/08/17 02:51:02;;;;;;;1.63;0.70;;;24.70;43.10;;;;;;5033983;28;20112;-69
2023/08/17 02:53:29;;;;;;;1.63;0.55;;;24.10;44.00;;;;;;5033239;28;20033;-70
2023/08/17 02:55:56;;;;;;;1.13;0.50;;;23.90;41.70;;;;;;5033617;28;20084;-70
2023/08/17 02:58:24;;;;;;;0.88;0.65;;;24.30;43.80;;;;;;5033860;28;20025;-70
2023/08/17 03:00:54;;;;;;;1.60;0.80;;;24.90;44.70;;;;;;5031881;28;20109;-70
2023/08/17 03:03:21;;;;;;;2.42;0.80;;;25.40;43.40;;;;;;5031458;28;20029;-69
2023/08/17 03:05:49;;;;;;;3.17;0.88;;;24.60;42.40;;;;;;5037198;28;20022;-70
2023/08/17 03:08:16;;;;;;;1.30;0.60;;;24.10;42.80;;;;;;5033357;28;20168;-69
2023/08/17 03:10:43;;;;;;;1.85;0.80;;;23.70;43.80;;;;;;5032002;28;20485;-69
2023/08/17 03:13:11;;;;;;;2.28;0.75;;;23.70;43.10;;;;;;5033038;28;20029;-69
2023/08/17 03:15:39;;;;;;;2.42;0.68;;;23.80;44.40;;;;;;5031126;28;20116;-69
2023/08/17 03:18:07;;;;;;;2.78;0.80;;;24.30;44.50;;;;;;5033642;28;20022;-69
2023/08/17 03:20:35;;;;;;;0.47;0.47;;;25.00;44.80;;;;;;5030630;28;20032;-70
2023/08/17 03:23:06;;;;;;;1.25;0.70;;;24.90;41.60;;;;;;5047747;28;20032;-70
2023/08/17 03:25:33;;;;;;;2.58;1.00;;;25.00;42.70;;;;;;5048331;28;20284;-69
2023/08/17 03:28:01;;;;;;;1.00;0.65;;;25.20;42.70;;;;;;5051843;28;20124;-70
2023/08/17 03:30:28;;;;;;;1.02;0.47;;;24.90;41.80;;;;;;5043691;28;20025;-70
2023/08/17 03:32:56;;;;;;;1.20;0.70;;;24.40;42.60;;;;;;5032173;28;20041;-69
2023/08/17 03:35:23;;;;;;;1.77;0.93;;;24.60;43.50;;;;;;5032739;28;20022;-69
2023/08/17 03:37:53;;;;;;;0.93;0.50;;;24.70;43.70;;;;;;5031271;28;20052;-69
2023/08/17 03:40:20;;;;;;;2.70;0.70;;;24.70;43.20;;;;;;5035912;28;20025;-69
2023/08/17 03:42:48;;;;;;;0.73;0.60;;;24.50;37.90;;;;;;5052514;28;20082;-69
2023/08/17 03:45:15;;;;;;;1.70;0.75;;;24.30;40.30;;;;;;5052674;28;20084;-69
2023/08/17 03:47:43;;;;;;;1.63;0.80;;;23.70;42.90;;;;;;5031373;28;20040;-69
2023/08/17 03:50:10;;;;;;;3.05;1.02;;;23.40;44.50;;;;;;5038568;28;20338;-69
2023/08/17 03:52:37;;;;;;;1.20;0.60;;;23.40;45.00;;;;;;5046876;28;20071;-71
2023/08/17 03:55:06;;;;;;;1.92;0.73;;;23.20;44.20;;;;;;5026611;28;20021;-69
2023/08/17 03:57:34;;;;;;;0.90;0.57;;;23.60;43.80;;;;;;5050729;28;20043;-70
2023/08/17 04:00:01;;;;;;;1.30;0.63;;;23.40;42.90;;;;;;5052632;28;20037;-70
2023/08/17 04:02:28;;;;;;;1.42;0.70;;;23.30;43.70;;;;;;5050374;28;20029;-69
2023/08/17 04:04:55;;;;;;;1.25;0.50;;;23.00;43.20;;;;;;5031697;28;20105;-70
2023/08/17 04:07:23;;;;;;;1.73;0.70;;;23.20;44.70;;;;;;5032831;28;20385;-69
2023/08/17 04:09:51;;;;;;;0.63;0.52;;;23.50;42.60;;;;;;5032421;28;20466;-69
2023/08/17 04:12:18;;;;;;;2.55;0.73;;;23.50;43.80;;;;;;5032718;28;20025;-69
2023/08/17 04:14:46;;;;;;;1.77;0.55;;;23.70;44.30;;;;;;5034487;28;20445;-69
2023/08/17 04:17:13;;;;;;;6.53;0.90;;;23.90;44.20;;;;;;5048395;28;20051;-69
2023/08/17 04:19:40;;;;;;;5.72;1.23;;;23.70;43.00;;;;;;5036671;28;20032;-69
2023/08/17 04:22:08;;;;;;;6.32;0.90;;;23.40;43.80;;;;;;5022645;28;20470;-69
2023/08/17 04:24:35;;;;;;;2.65;0.93;;;23.30;43.40;;;;;;5043903;28;20059;-70
2023/08/17 04:27:03;;;;;;;16.95;1.60;;;23.00;43.40;;;;;;5052042;28;20041;-69
2023/08/17 04:29:31;;;;;;;4.47;1.10;;;23.00;44.30;;;;;;5045664;28;20033;-70
2023/08/17 04:31:59;;;;;;;4.40;0.80;;;22.70;43.30;;;;;;5044406;28;20082;-69
2023/08/17 04:34:26;;;;;;;4.80;0.90;;;22.80;44.40;;;;;;5051872;28;20054;-69
2023/08/17 04:36:54;;;;;;;6.10;0.80;;;22.80;44.20;;;;;;5032915;28;20025;-69
2023/08/17 04:39:21;;;;;;;3.33;0.75;;;22.80;45.10;;;;;;5030358;28;20021;-69
2023/08/17 04:41:48;;;;;;;3.10;0.80;;;22.90;44.70;;;;;;5031939;28;20026;-69
2023/08/17 04:44:16;;;;;;;2.67;0.85;;;22.90;44.70;;;;;;5031807;28;20167;-70
2023/08/17 04:46:43;;;;;;;2.53;0.90;;;22.40;44.20;;;;;;5026294;28;20027;-69
2023/08/17 04:49:10;;;;;;;1.92;0.60;;;22.20;44.60;;;;;;5046762;28;20014;-69
2023/08/17 04:51:38;;;;;;;4.32;0.82;;;22.50;42.80;;;;;;5034075;28;20025;-69
2023/08/17 04:54:05;;;;;;;16.60;1.30;;;22.50;44.90;;;;;;5034983;28;20091;-69
2023/08/17 04:56:32;;;;;;;1.75;0.75;;;22.50;45.20;;;;;;5045131;28;20469;-69
2023/08/17 04:59:00;;;;;;;3.55;0.75;;;22.40;45.80;;;;;;5034681;28;20038;-69
2023/08/17 05:01:27;;;;;;;1.95;0.70;;;22.30;45.40;;;;;;5035500;28;20021;-68
2023/08/17 05:03:54;;;;;;;2.65;1.25;;;21.80;45.40;;;;;;5039436;28;20103;-70
2023/08/17 05:06:22;;;;;;;2.95;0.90;;;21.70;47.10;;;;;;5046901;28;20489;-69
2023/08/17 05:08:49;;;;;;;2.25;0.60;;;21.50;46.20;;;;;;5055482;28;20025;-69
2023/08/17 05:11:16;;;;;;;2.83;0.77;;;21.20;47.40;;;;;;5033501;28;20028;-70
2023/08/17 05:13:43;;;;;;;2.75;1.00;;;21.20;48.10;;;;;;5035702;28;20374;-69
2023/08/17 05:16:11;;;;;;;1.27;0.88;;;21.30;48.00;;;;;;5034610;28;20083;-70
2023/08/17 05:18:39;;;;;;;0.82;0.60;;;21.30;47.20;;;;;;5035227;28;20028;-71
2023/08/17 05:21:07;;;;;;;1.58;0.80;;;21.30;47.20;;;;;;5031156;28;20025;-70
2023/08/17 05:23:34;;;;;;;1.20;0.80;;;21.30;46.90;;;;;;5035067;28;20029;-69
2023/08/17 05:26:01;;;;;;;2.15;0.90;;;21.10;47.10;;;;;;5035101;28;20030;-70
2023/08/17 05:28:29;;;;;;;3.40;1.02;;;21.00;47.20;;;;;;5030342;28;20499;-70
2023/08/17 05:30:56;;;;;;;1.33;0.80;;;21.20;47.40;;;;;;5043843;28;20083;-70
2023/08/17 05:33:23;;;;;;;1.83;0.90;;;21.10;48.60;;;;;;5053191;28;20033;-70
2023/08/17 05:35:57;;;;;;;2.45;0.77;;;21.00;47.10;;;;;;5045148;28;20370;-70
2023/08/17 05:38:24;;;;;;;1.65;0.80;;;21.00;48.80;;;;;;5034143;28;20075;-69
2023/08/17 05:40:59;;;;;;;1.50;0.70;;;21.00;48.20;;;;;;5040175;28;20032;-69
2023/08/17 05:43:27;;;;;;;2.22;0.70;;;21.10;47.70;;;;;;5054973;28;20051;-70
2023/08/17 05:45:54;;;;;;;3.17;0.85;;;21.30;48.10;;;;;;5042766;28;20086;-70
2023/08/17 05:48:23;;;;;;;3.70;0.75;;;21.30;47.80;;;;;;5034951;28;20025;-70
2023/08/17 05:50:50;;;;;;;0.90;0.80;;;21.50;46.60;;;;;;5035892;28;20466;-69
2023/08/17 05:53:18;;;;;;;0.82;0.75;;;21.60;46.60;;;;;;5052548;28;20043;-70
2023/08/17 05:55:45;;;;;;;0.70;0.55;;;21.80;46.50;;;;;;5046047;28;20058;-70
2023/08/17 05:58:13;;;;;;;2.53;0.65;;;21.90;45.70;;;;;;5029457;28;20040;-70
2023/08/17 06:00:41;;;;;;;2.78;0.77;;;21.80;46.10;;;;;;5030623;28;20029;-70
2023/08/17 06:03:08;;;;;;;1.67;0.60;;;21.60;45.60;;;;;;5042771;28;20200;-70
2023/08/17 06:05:36;;;;;;;3.33;0.70;;;21.30;46.80;;;;;;5053560;28;20023;-70
2023/08/17 06:08:04;;;;;;;3.42;0.68;;;21.40;47.00;;;;;;5031841;28;20040;-70
2023/08/17 06:10:31;;;;;;;1.00;0.52;;;21.40;45.60;;;;;;5053571;28;20192;-70
2023/08/17 06:12:58;;;;;;;1.75;0.80;;;21.50;46.60;;;;;;5040521;28;20017;-70
2023/08/17 06:15:26;;;;;;;2.20;0.70;;;21.30;46.70;;;;;;5034310;28;20064;-70
2023/08/17 06:17:53;;;;;;;4.03;0.70;;;21.50;46.70;;;;;;5034423;28;20358;-70
2023/08/17 06:20:21;;;;;;;1.15;0.60;;;21.50;45.50;;;;;;5042163;28;20329;-70
2023/08/17 06:22:49;;;;;;;6.68;0.60;;;21.30;46.50;;;;;;5048280;28;20108;-71
2023/08/17 06:25:17;;;;;;;4.78;0.82;;;21.10;47.40;;;;;;5053612;28;20017;-70
2023/08/17 06:27:44;;;;;;;4.90;0.85;;;20.90;47.50;;;;;;5034819;28;20517;-70
2023/08/17 06:30:12;;;;;;;1.48;0.73;;;21.00;47.60;;;;;;5043009;28;20387;-71
2023/08/17 06:32:40;;;;;;;2.38;0.60;;;21.10;47.70;;;;;;5043580;28;20399;-70
2023/08/17 06:35:15;;;;;;;2.78;1.00;;;21.20;47.30;;;;;;5033600;28;20029;-70
2023/08/17 06:37:45;;;;;;;4.68;0.85;;;21.10;47.50;;;;;;5033997;28;20091;-70
2023/08/17 06:40:12;;;;;;;4.13;0.70;;;21.00;47.70;;;;;;5033863;28;20459;-71
2023/08/17 06:42:40;;;;;;;1.92;0.70;;;21.00;48.40;;;;;;5030274;28;20439;-71
2023/08/17 06:45:08;;;;;;;6.05;0.60;;;20.80;48.40;;;;;;5051047;28;20031;-69
2023/08/17 06:47:35;;;;;;;8.27;1.08;;;20.60;49.30;;;;;;5039424;28;20029;-69
2023/08/17 06:50:03;;;;;;;3.63;1.00;;;20.40;47.30;;;;;;5047776;28;20065;-70
2023/08/17 06:52:30;;;;;;;1.05;0.60;;;20.30;49.30;;;;;;5050465;28;20055;-70
2023/08/17 06:54:57;;;;;;;1.33;0.75;;;20.30;48.40;;;;;;5033445;28;20021;-70
2023/08/17 06:57:25;;;;;;;1.98;0.75;;;20.30;45.30;;;;;;5034523;28;20052;-70
2023/08/17 06:59:53;;;;;;;1.30;0.80;;;20.20;49.00;;;;;;5042145;28;20029;-72
2023/08/17 07:02:21;;;;;;;1.65;0.73;;;20.00;49.20;;;;;;5030298;28;20040;-71
2023/08/17 07:04:48;;;;;;;2.38;0.73;;;19.80;48.70;;;;;;5033650;28;20029;-69
2023/08/17 07:07:16;;;;;;;3.20;0.80;;;19.70;50.20;;;;;;5033744;28;20029;-70
2023/08/17 07:09:43;;;;;;;1.90;1.02;;;19.60;49.30;;;;;;5024919;28;20037;-69
2023/08/17 07:12:10;;;;;;;2.05;0.90;;;19.40;50.20;;;;;;5033250;28;20028;-69
2023/08/17 07:14:38;;;;;;;1.35;0.70;;;19.40;49.60;;;;;;5039556;28;20052;-69
2023/08/17 07:17:05;;;;;;;2.83;0.70;;;19.30;49.60;;;;;;5033113;28;20386;-69
2023/08/17 07:19:32;;;;;;;2.20;0.70;;;19.30;51.40;;;;;;5033638;28;20107;-69
2023/08/17 07:22:00;;;;;;;1.77;1.00;;;19.10;52.20;;;;;;5032925;28;20115;-70
2023/08/17 07:24:27;;;;;;;2.75;0.90;;;18.90;54.00;;;;;;5033376;28;20479;-70
2023/08/17 07:26:54;;;;;;;2.90;0.77;;;18.80;52.10;;;;;;5028600;28;20053;-70
2023/08/17 07:29:22;;;;;;;4.00;0.90;;;18.70;54.80;;;;;;5027713;28;20026;-70
2023/08/17 07:31:49;;;;;;;2.83;0.80;;;18.60;55.30;;;;;;5031338;28;20025;-69
2023/08/17 07:34:16;;;;;;;2.42;0.90;;;18.50;52.70;;;;;;5032513;28;20387;-70
2023/08/17 07:36:43;;;;;;;5.60;3.05;;;18.40;57.20;;;;;;5031553;28;20060;-70
2023/08/17 07:39:11;;;;;;;7.63;4.50;;;18.30;57.00;;;;;;5027987;28;20394;-70
2023/08/17 07:41:38;;;;;;;13.88;2.97;;;18.30;58.20;;;;;;5030664;28;20048;-70
2023/08/17 07:44:06;;;;;;;16.98;2.90;;;18.60;56.80;;;;;;5032538;28;20067;-69
2023/08/17 07:46:33;;;;;;;8.02;1.75;;;18.70;57.30;;;;;;5032726;28;20505;-70
2023/08/17 07:49:00;;;;;;;6.18;1.40;;;18.60;58.20;;;;;;5030180;28;20134;-70
2023/08/17 07:51:29;;;;;;;3.60;1.70;;;18.50;60.00;;;;;;5048051;28;20025;-69
2023/08/17 07:53:57;;;;;;;4.03;1.33;;;18.40;60.80;;;;;;5049646;28;20470;-70
2023/08/17 07:56:24;;;;;;;5.63;1.40;;;18.40;60.50;;;;;;5041540;28;20071;-70
2023/08/17 07:58:53;;;;;;;9.68;3.38;;;18.30;60.90;;;;;;5030827;28;20022;-71
2023/08/17 08:01:21;;;;;;;24.33;4.40;;;18.30;61.20;;;;;;5046797;28;20021;-70
2023/08/17 08:03:48;;;;;;;16.30;4.72;;;18.30;61.30;;;;;;5041813;28;20033;-69
2023/08/17 08:06:16;;;;;;;14.52;2.47;;;18.20;61.90;;;;;;5031520;28;20068;-70
2023/08/17 08:08:43;;;;;;;23.30;3.25;;;18.10;62.20;;;;;;5032449;28;20021;-70
2023/08/17 08:11:11;;;;;;;22.73;2.65;;;17.90;61.00;;;;;;5032882;28;20502;-70
2023/08/17 08:13:38;;;;;;;16.60;3.17;;;18.00;62.70;;;;;;5032520;28;20045;-70
2023/08/17 08:16:06;;;;;;;13.07;1.85;;;17.90;63.90;;;;;;5028489;28;20047;-70
2023/08/17 08:18:33;;;;;;;17.75;2.35;;;17.90;64.00;;;;;;5039319;28;20040;-70
2023/08/17 08:21:00;;;;;;;17.33;2.33;;;17.70;64.10;;;;;;5046704;28;20061;-70
2023/08/17 08:23:29;;;;;;;6.22;1.88;;;17.80;65.00;;;;;;5032143;28;20026;-70
2023/08/17 08:25:58;;;;;;;4.05;1.50;;;18.00;65.50;;;;;;5023517;28;20299;-70
2023/08/17 08:28:25;;;;;;;4.38;1.48;;;17.80;65.00;;;;;;5041142;28;20029;-70
2023/08/17 08:30:53;;;;;;;5.93;1.75;;;17.70;66.80;;;;;;5049287;28;20116;-70
2023/08/17 08:33:20;;;;;;;2.70;1.10;;;17.80;67.30;;;;;;5032063;28;20506;-70
2023/08/17 08:35:47;;;;;;;7.05;1.40;;;17.70;67.30;;;;;;5031577;28;20029;-70
2023/08/17 08:38:15;;;;;;;2.72;1.50;;;17.60;67.90;;;;;;5039353;28;20079;-70
2023/08/17 08:40:44;;;;;;;2.80;1.50;;;17.40;68.90;;;;;;5052308;28;20028;-70
2023/08/17 08:43:11;;;;;;;2.28;1.10;;;17.40;69.50;;;;;;5052068;28;20095;-69
2023/08/17 08:45:41;;;;;;;3.20;1.50;;;17.30;69.20;;;;;;5040199;28;20022;-70
2023/08/17 08:48:10;;;;;;;5.70;1.70;;;17.30;69.40;;;;;;5032142;28;20482;-69
2023/08/17 08:50:39;;;;;;;2.58;1.08;;;17.30;69.00;;;;;;5032157;28;20033;-70
2023/08/17 08:53:14;;;;;;;7.70;1.33;;;17.30;69.50;;;;;;5032077;28;20501;-69
2023/08/17 08:56:03;;;;;;;3.92;1.30;;;17.20;71.40;;;;;;5032746;28;20075;-69
2023/08/17 08:58:33;;;;;;;2.22;1.40;;;17.10;70.90;;;;;;5032015;28;20040;-69
2023/08/17 09:01:02;;;;;;;6.18;1.65;;;17.30;70.90;;;;;;5034435;28;20474;-69
2023/08/17 09:03:33;;;;;;;6.60;2.75;;;17.20;69.90;;;;;;5032483;28;20030;-69
2023/08/17 09:06:00;;;;;;;3.05;1.20;;;17.20;70.90;;;;;;5031363;28;20076;-69
2023/08/17 09:08:31;;;;;;;6.35;1.50;;;17.10;71.00;;;;;;5031333;28;20021;-69
2023/08/17 09:10:59;;;;;;;2.78;1.20;;;17.20;71.10;;;;;;5031390;28;20021;-69
2023/08/17 09:13:26;;;;;;;4.93;1.17;;;17.00;70.20;;;;;;5028992;28;20546;-70
2023/08/17 09:15:54;;;;;;;5.60;1.80;;;16.90;70.20;;;;;;5029358;28;20021;-69
2023/08/17 09:18:21;;;;;;;3.50;1.48;;;16.90;70.70;;;;;;5043216;28;20040;-69
2023/08/17 09:20:52;;;;;;;5.10;2.20;;;16.80;70.90;;;;;;5051185;28;20135;-69
2023/08/17 09:23:21;;;;;;;5.47;2.00;;;17.00;71.80;;;;;;5050943;28;20029;-69
2023/08/17 09:25:52;;;;;;;6.28;1.52;;;17.00;72.00;;;;;;5040100;28;20029;-69
2023/08/17 09:28:20;;;;;;;5.40;1.95;;;17.00;72.30;;;;;;5050522;28;20076;-70
2023/08/17 09:31:05;;;;;;;5.85;1.50;;;17.00;71.30;;;;;;5033105;28;20025;-70
2023/08/17 09:33:32;;;;;;;4.97;1.40;;;16.90;71.90;;;;;;5026527;28;20494;-71
2023/08/17 09:36:00;;;;;;;4.57;1.65;;;16.70;72.70;;;;;;5031027;28;20052;-70
2023/08/17 09:38:29;;;;;;;3.17;1.80;;;16.60;74.30;;;;;;5026895;28;20029;-69
2023/08/17 09:40:59;;;;;;;3.15;1.40;;;16.50;73.70;;;;;;5024149;28;20017;-70
2023/08/17 09:43:32;;;;;;;8.05;1.60;;;16.50;75.20;;;;;;5031855;28;20060;-70
2023/08/17 09:46:02;;;;;;;7.25;1.35;;;16.50;73.70;;;;;;5039257;28;20032;-70
2023/08/17 09:48:30;;;;;;;7.45;2.42;;;16.80;72.20;;;;;;5049718;28;20029;-71
2023/08/17 09:50:59;;;;;;;6.15;2.10;;;16.80;73.50;;;;;;5054443;28;20355;-69
2023/08/17 09:53:26;;;;;;;4.85;2.50;;;16.40;75.30;;;;;;5035564;28;20103;-69
2023/08/17 09:55:58;;;;;;;5.65;2.13;;;16.30;76.40;;;;;;5034785;28;20068;-70
2023/08/17 09:58:25;;;;;;;6.53;1.90;;;16.30;76.10;;;;;;5039189;28;20420;-70
2023/08/17 10:00:52;;;;;;;5.82;2.00;;;16.20;76.80;;;;;;5054292;28;20027;-71
2023/08/17 10:03:20;;;;;;;4.57;2.08;;;16.20;77.40;;;;;;5052554;28;20035;-70
2023/08/17 10:05:56;;;;;;;8.60;2.70;;;16.20;77.70;;;;;;5054414;28;20071;-70
2023/08/17 10:08:24;;;;;;;8.95;3.15;;;16.20;79.00;;;;;;5037678;28;20098;-71
2023/08/17 10:10:51;;;;;;;4.80;2.67;;;16.10;77.80;;;;;;5034679;28;20034;-70
2023/08/17 10:13:28;;;;;;;4.43;3.05;;;16.20;77.30;;;;;;5033653;28;20034;-71
2023/08/17 10:16:26;;;;;;;6.15;3.70;;;16.40;77.00;;;;;;5033977;28;20038;-70
2023/08/17 10:19:06;;;;;;;8.90;3.33;;;16.30;77.40;;;;;;5033473;28;20151;-70
2023/08/17 10:21:58;;;;;;;5.85;3.10;;;16.20;78.10;;;;;;5040909;28;20559;-70
2023/08/17 10:24:26;;;;;;;5.40;2.75;;;16.20;77.70;;;;;;5025448;28;20521;-70
2023/08/17 10:26:54;;;;;;;8.88;2.95;;;16.10;78.00;;;;;;5039030;28;20049;-70
2023/08/17 10:29:24;;;;;;;5.22;3.40;;;16.10;78.00;;;;;;5037939;28;20064;-70
2023/08/17 10:31:52;;;;;;;4.75;2.72;;;16.10;78.10;;;;;;5034048;28;20022;-70
2023/08/17 10:34:20;;;;;;;7.65;2.28;;;16.10;78.10;;;;;;5033630;28;20030;-71
2023/08/17 10:36:48;;;;;;;4.35;2.50;;;16.00;78.50;;;;;;5035555;28;20033;-70
2023/08/17 10:39:24;;;;;;;4.72;1.95;;;16.00;79.00;;;;;;5046567;28;20398;-68
2023/08/17 10:41:52;;;;;;;6.32;1.80;;;16.10;79.00;;;;;;5033647;28;20086;-70
2023/08/17 10:44:49;;;;;;;5.85;2.15;;;16.00;80.00;;;;;;5034030;28;20029;-70
2023/08/17 10:47:35;;;;;;;5.55;1.77;;;15.80;81.50;;;;;;5030550;28;20037;-70
2023/08/17 10:50:07;;;;;;;9.32;2.72;;;15.80;82.50;;;;;;5032066;28;20039;-70
2023/08/17 10:52:37;;;;;;;7.15;2.22;;;15.70;85.80;;;;;;5029302;28;20017;-70
2023/08/17 10:55:12;;;;;;;4.13;2.25;;;15.70;88.20;;;;;;5032335;28;20585;-69
2023/08/17 10:57:44;;;;;;;7.32;2.75;;;15.60;89.60;;;;;;5042690;28;20037;-69
2023/08/17 11:00:31;;;;;;;5.82;2.78;;;15.50;90.60;;;;;;5048051;28;20034;-70
2023/08/17 11:03:01;;;;;;;7.57;2.90;;;15.50;91.50;;;;;;5035896;28;20119;-69
2023/08/17 11:05:37;;;;;;;8.43;2.58;;;15.50;92.50;;;;;;5053033;28;20111;-70
2023/08/17 11:08:06;;;;;;;7.15;2.33;;;15.60;90.50;;;;;;5052667;28;20021;-70
2023/08/17 11:10:34;;;;;;;7.97;3.50;;;15.50;91.80;;;;;;5039957;28;20036;-69
2023/08/17 11:13:02;;;;;;;5.13;2.35;;;15.20;91.70;;;;;;5052770;28;20029;-69
2023/08/17 11:15:43;;;;;;;13.75;3.28;;;15.00;91.80;;;;;;5052937;28;20425;-69
2023/08/17 11:18:12;;;;;;;6.68;3.60;;;15.00;94.50;;;;;;5043850;28;20586;-69
2023/08/17 11:20:42;;;;;;;8.82;3.35;;;15.20;94.80;;;;;;5031462;28;20065;-69
2023/08/17 11:23:11;;;;;;;8.05;2.88;;;15.30;95.10;;;;;;5031604;28;20026;-69
2023/08/17 11:25:38;;;;;;;8.38;3.63;;;15.10;96.10;;;;;;5032004;28;20475;-69
2023/08/17 11:28:11;;;;;;;8.85;3.58;;;15.30;96.10;;;;;;5032408;28;20052;-68
2023/08/17 11:30:38;;;;;;;7.78;3.67;;;15.20;97.20;;;;;;5031054;28;20064;-69
2023/08/17 11:33:08;;;;;;;11.60;4.50;;;15.00;97.90;;;;;;5031028;28;20083;-69
2023/08/17 11:35:36;;;;;;;8.77;3.63;;;15.00;99.10;;;;;;5050998;28;20471;-68
2023/08/17 11:38:05;;;;;;;6.13;3.90;;;14.90;98.30;;;;;;5053193;28;20032;-69
2023/08/17 11:40:33;;;;;;;6.85;4.00;;;14.80;98.30;;;;;;5043871;28;20064;-69
2023/08/17 11:43:01;;;;;;;12.82;4.50;;;14.90;98.60;;;;;;5033242;28;20060;-69
2023/08/17 11:45:28;;;;;;;9.85;4.93;;;14.80;97.40;;;;;;5041386;28;20109;-69
2023/08/17 11:47:56;;;;;;;18.90;6.28;;;14.80;97.50;;;;;;5052649;28;20111;-69
2023/08/17 11:50:25;;;;;;;9.15;4.72;;;14.80;98.60;;;;;;5042396;28;20033;-69
2023/08/17 11:52:52;;;;;;;10.82;5.10;;;14.70;98.90;;;;;;5045052;28;20051;-69
2023/08/17 11:55:20;;;;;;;12.00;6.00;;;14.60;99.60;;;;;;5035513;28;20033;-69
2023/08/17 11:57:48;;;;;;;10.38;5.78;;;14.60;99.90;;;;;;5032048;28;20430;-69
2023/08/17 12:00:20;;;;;;;8.32;4.97;;;14.60;99.90;;;;;;5031255;28;20471;-69
2023/08/17 12:02:52;;;;;;;10.30;6.20;;;14.60;99.20;;;;;;5031316;28;20053;-69
2023/08/17 12:05:23;;;;;;;12.18;7.70;;;14.40;99.40;;;;;;5025889;28;20372;-71
2023/08/17 12:07:57;;;;;;;14.73;7.20;;;14.30;99.70;;;;;;5030292;28;20464;-69
2023/08/17 12:10:24;;;;;;;13.70;6.60;;;14.20;99.40;;;;;;5030104;28;20037;-69
2023/08/17 12:12:51;;;;;;;10.05;5.60;;;14.20;98.10;;;;;;5050276;28;20115;-70
2023/08/17 12:15:19;;;;;;;11.57;5.90;;;14.10;99.80;;;;;;5032085;28;20029;-69
2023/08/17 12:17:47;;;;;;;10.68;5.63;;;14.10;98.40;;;;;;5045131;28;20028;-69
2023/08/17 12:20:22;;;;;;;13.80;5.97;;;14.10;99.90;;;;;;5050600;28;20429;-70
2023/08/17 12:22:49;;;;;;;15.55;6.15;;;14.10;99.20;;;;;;5051605;28;20031;-69
2023/08/17 12:25:20;;;;;;;10.88;6.68;;;14.00;98.30;;;;;;5050752;28;20025;-69
2023/08/17 12:27:48;;;;;;;13.48;6.45;;;14.20;95.60;;;;;;5030313;28;20081;-69
2023/08/17 12:30:31;;;;;;;12.10;6.63;;;14.10;96.90;;;;;;5031970;28;20075;-69
2023/08/17 12:32:59;;;;;;;16.17;7.22;;;13.80;97.10;;;;;;5043810;28;20032;-70
2023/08/17 12:35:27;;;;;;;17.75;8.05;;;13.80;98.40;;;;;;5046426;28;20079;-71
2023/08/17 12:37:55;;;;;;;13.77;7.97;;;13.60;97.80;;;;;;5034279;28;20067;-70
2023/08/17 12:40:23;;;;;;;14.60;7.55;;;13.80;99.90;;;;;;5020294;28;20108;-69
2023/08/17 12:42:51;;;;;;;15.00;8.35;;;13.80;97.40;;;;;;5042983;28;20037;-70
2023/08/17 12:45:18;;;;;;;13.57;7.07;;;13.70;97.30;;;;;;5031527;28;20509;-69
2023/08/17 12:47:46;;;;;;;14.20;6.82;;;13.60;97.80;;;;;;5031381;28;20096;-72
2023/08/17 12:50:13;;;;;;;12.48;6.88;;;13.50;97.80;;;;;;5039819;28;20036;-71
2023/08/17 12:52:40;;;;;;;13.02;7.63;;;13.50;98.20;;;;;;5051179;28;20029;-71